Home > Products > Valid Products > TAF

000
FTUS43 KDLH 021405 AAC
TAFDLH
TAF AMD
KDLH 021405Z 0214/0312 18008KT 1SM -RA BR SCT040 BKN070
     FM021500 15008KT P6SM VCSH SCT070
     FM021800 12010KT P6SM FEW120
     FM030300 10005KT 5SM BR SCT010
     FM030700 10005KT 1SM BR SCT003 BKN010=



000
FTUS43 KDLH 021405 AAC
TAFDLH
TAF AMD
KDLH 021405Z 0214/0312 18008KT 1SM -RA BR SCT040 BKN070
     FM021500 15008KT P6SM VCSH SCT070
     FM021800 12010KT P6SM FEW120
     FM030300 10005KT 5SM BR SCT010
     FM030700 10005KT 1SM BR SCT003 BKN010=



000
FTUS43 KDLH 021303 AAA
TAFBRD
TAF AMD
KBRD 021303Z 0213/0312 00000KT 2SM BR SKC
     FM021400 14008KT P6SM SKC
     FM030100 14005KT P6SM SCT035
     FM030700 12003KT 3SM BR SCT020 BKN025=



000
FTUS43 KDLH 021303 AAA
TAFBRD
TAF AMD
KBRD 021303Z 0213/0312 00000KT 2SM BR SKC
     FM021400 14008KT P6SM SKC
     FM030100 14005KT P6SM SCT035
     FM030700 12003KT 3SM BR SCT020 BKN025=



000
FTUS43 KDLH 021301 AAA
TAFHYR
TAF AMD
KHYR 021301Z 0213/0312 23005KT P6SM -RA OVC100
      TEMPO 0213/0214 3SM RA BR BKN070
     FM021700 14006KT P6SM VCSH BKN080
     FM022200 16007KT P6SM BKN080
     FM030300 VRB02KT 5SM BR BKN040=



000
FTUS43 KDLH 021301 AAA
TAFHYR
TAF AMD
KHYR 021301Z 0213/0312 23005KT P6SM -RA OVC100
      TEMPO 0213/0214 3SM RA BR BKN070
     FM021700 14006KT P6SM VCSH BKN080
     FM022200 16007KT P6SM BKN080
     FM030300 VRB02KT 5SM BR BKN040=



000
FTUS43 KDLH 021251 AAB
TAFDLH
TAF AMD
KDLH 021251Z 0213/0312 09009KT P6SM VCTS FEW006 OVC045CB
      TEMPO 0213/0214 16024G32KT 2SM TSRA BR BKN006 OVC021CB
     FM021400 09008KT 6SM HZ BR VCTS SCT020CB BKN100
     FM021800 12010KT P6SM FEW120
     FM030300 10005KT 5SM BR SCT010
     FM030700 10005KT 1SM BR SCT003 BKN010=



000
FTUS43 KDLH 021251 AAB
TAFDLH
TAF AMD
KDLH 021251Z 0213/0312 09009KT P6SM VCTS FEW006 OVC045CB
      TEMPO 0213/0214 16024G32KT 2SM TSRA BR BKN006 OVC021CB
     FM021400 09008KT 6SM HZ BR VCTS SCT020CB BKN100
     FM021800 12010KT P6SM FEW120
     FM030300 10005KT 5SM BR SCT010
     FM030700 10005KT 1SM BR SCT003 BKN010=



000
FTUS43 KDLH 021236 AAA
TAFDLH
TAF AMD
KDLH 021236Z 0213/0312 09009KT P6SM VCTS BKN006 OVC045CB
      TEMPO 0213/0214 5SM -TSRA BR BKN003 OVC020CB
     FM021400 09008KT 6SM HZ BR VCTS SCT020CB BKN100
     FM021800 12010KT P6SM FEW120
     FM030300 10005KT 5SM BR SCT010
     FM030700 10005KT 1SM BR SCT003 BKN010=



000
FTUS43 KDLH 021236 AAA
TAFDLH
TAF AMD
KDLH 021236Z 0213/0312 09009KT P6SM VCTS BKN006 OVC045CB
      TEMPO 0213/0214 5SM -TSRA BR BKN003 OVC020CB
     FM021400 09008KT 6SM HZ BR VCTS SCT020CB BKN100
     FM021800 12010KT P6SM FEW120
     FM030300 10005KT 5SM BR SCT010
     FM030700 10005KT 1SM BR SCT003 BKN010=



000
FTUS43 KDLH 021141
TAFHYR
TAF
KHYR 021141Z 0212/0312 13005KT P6SM -RA VCTS OVC100CB
     FM021700 14006KT P6SM VCSH BKN080
     FM022200 16007KT P6SM BKN080
     FM030300 VRB02KT 5SM BR BKN040=



000
FTUS43 KDLH 021141
TAFBRD
TAF
KBRD 021141Z 0212/0312 18004KT 4SM BR BKN006 OVC015
      TEMPO 0212/0213 5SM BR SCT015
     FM021300 15010KT P6SM SCT040
     FM030100 14005KT P6SM SCT035
     FM030700 12003KT 3SM BR SCT020 BKN025=



000
FTUS43 KDLH 021141
TAFINL
TAF
KINL 021141Z 0212/0312 14005KT P6SM SKC
     FM021700 15008G14KT P6SM SKC
     FM030100 13004KT P6SM SKC=



000
FTUS43 KDLH 021141
TAFDLH
TAF
KDLH 021141Z 0212/0312 08006KT 3SM BR VCTS BKN015CB
      TEMPO 0212/0215 1SM -TSRA BR BKN003 OVC020CB
     FM021500 09008KT 6SM HZ BR VCTS SCT020CB BKN100
     FM021800 12010KT P6SM FEW120
     FM030300 10005KT 5SM BR SCT010
     FM030700 10005KT 1SM BR SCT003 BKN010=



000
FTUS43 KDLH 021141
TAFINL
TAF
KINL 021141Z 0212/0312 14005KT P6SM SKC
     FM021700 15008G14KT P6SM SKC
     FM030100 13004KT P6SM SKC=



000
FTUS43 KDLH 021141
TAFBRD
TAF
KBRD 021141Z 0212/0312 18004KT 4SM BR BKN006 OVC015
      TEMPO 0212/0213 5SM BR SCT015
     FM021300 15010KT P6SM SCT040
     FM030100 14005KT P6SM SCT035
     FM030700 12003KT 3SM BR SCT020 BKN025=



000
FTUS43 KDLH 021141
TAFHYR
TAF
KHYR 021141Z 0212/0312 13005KT P6SM -RA VCTS OVC100CB
     FM021700 14006KT P6SM VCSH BKN080
     FM022200 16007KT P6SM BKN080
     FM030300 VRB02KT 5SM BR BKN040=



000
FTUS43 KDLH 021141
TAFDLH
TAF
KDLH 021141Z 0212/0312 08006KT 3SM BR VCTS BKN015CB
      TEMPO 0212/0215 1SM -TSRA BR BKN003 OVC020CB
     FM021500 09008KT 6SM HZ BR VCTS SCT020CB BKN100
     FM021800 12010KT P6SM FEW120
     FM030300 10005KT 5SM BR SCT010
     FM030700 10005KT 1SM BR SCT003 BKN010=



000
FTUS43 KDLH 021021 AAA
TAFINL
TAF AMD
KINL 021021Z 0210/0306 00000KT P6SM SKC
      TEMPO 0210/0213 5SM BR FEW025
     FM021300 16010KT P6SM FEW040 SCT080
     FM030100 14006KT 6SM HZ BR SKC=



000
FTUS43 KDLH 021021 AAA
TAFINL
TAF AMD
KINL 021021Z 0210/0306 00000KT P6SM SKC
      TEMPO 0210/0213 5SM BR FEW025
     FM021300 16010KT P6SM FEW040 SCT080
     FM030100 14006KT 6SM HZ BR SKC=



000
FTUS43 KDLH 020904 AAD
TAFDLH
TAF AMD
KDLH 020904Z 0209/0306 09006KT 5SM BR VCTS SCT040CB SCT100 BKN120
      TEMPO 0209/0212 2SM BR BKN003
     FM021500 09008KT P6SM SCT022 SCT080
     FM030100 06005KT 6SM HZ BR SCT040=



000
FTUS43 KDLH 020904 AAD
TAFDLH
TAF AMD
KDLH 020904Z 0209/0306 09006KT 5SM BR VCTS SCT040CB SCT100 BKN120
      TEMPO 0209/0212 2SM BR BKN003
     FM021500 09008KT P6SM SCT022 SCT080
     FM030100 06005KT 6SM HZ BR SCT040=



000
FTUS43 KDLH 020824 AAC
TAFDLH
TAF AMD
KDLH 020824Z 0208/0306 09006KT 5SM BR VCSH FEW040 SCT100 BKN120
     FM020900 11002KT 5SM BR VCTS BKN030CB OVC080
      TEMPO 0209/0213 3SM BR BKN009
     FM021500 09008KT P6SM SCT022 SCT080
     FM030100 06005KT 6SM HZ BR SCT040=



000
FTUS43 KDLH 020824 AAC
TAFDLH
TAF AMD
KDLH 020824Z 0208/0306 09006KT 5SM BR VCSH FEW040 SCT100 BKN120
     FM020900 11002KT 5SM BR VCTS BKN030CB OVC080
      TEMPO 0209/0213 3SM BR BKN009
     FM021500 09008KT P6SM SCT022 SCT080
     FM030100 06005KT 6SM HZ BR SCT040=



000
FTUS43 KDLH 020648 AAB
TAFHYR
TAF AMD
KHYR 020648Z 0207/0306 00000KT 3SM HZ BR VCTS BKN050CB
      TEMPO 0207/0210 3/4SM -TSRA BR
     FM021000 16005KT 1 1/2SM HZ BR VCTS SCT015 BKN060CB
      TEMPO 0210/0213 1/2SM FG
     FM021400 13006KT P6SM VCTS SCT030 BKN080CB
     FM021700 15007KT P6SM SCT080
     FM030100 10004KT 6SM HZ BR SKC=



000
FTUS43 KDLH 020648 AAB
TAFHYR
TAF AMD
KHYR 020648Z 0207/0306 00000KT 3SM HZ BR VCTS BKN050CB
      TEMPO 0207/0210 3/4SM -TSRA BR
     FM021000 16005KT 1 1/2SM HZ BR VCTS SCT015 BKN060CB
      TEMPO 0210/0213 1/2SM FG
     FM021400 13006KT P6SM VCTS SCT030 BKN080CB
     FM021700 15007KT P6SM SCT080
     FM030100 10004KT 6SM HZ BR SKC=



000
FTUS43 KDLH 020637 AAA
TAFHYR
TAF AMD
KHYR 020637Z 0207/0306 00000KT 3SM HZ BR VCSH SCT120
      TEMPO 0207/0210 3/4SM BR
     FM021000 16005KT 1 1/2SM HZ BR VCTS SCT015 BKN060CB
      TEMPO 0210/0213 1/2SM FG
     FM021400 13006KT P6SM VCTS SCT030 BKN080CB
     FM021700 15007KT P6SM SCT080
     FM030100 10004KT 6SM HZ BR SKC=



000
FTUS43 KDLH 020637 AAA
TAFHYR
TAF AMD
KHYR 020637Z 0207/0306 00000KT 3SM HZ BR VCSH SCT120
      TEMPO 0207/0210 3/4SM BR
     FM021000 16005KT 1 1/2SM HZ BR VCTS SCT015 BKN060CB
      TEMPO 0210/0213 1/2SM FG
     FM021400 13006KT P6SM VCTS SCT030 BKN080CB
     FM021700 15007KT P6SM SCT080
     FM030100 10004KT 6SM HZ BR SKC=



000
FTUS43 KDLH 020542
TAFDLH
TAF
KDLH 020542Z 0206/0306 03004KT 6SM HZ BR VCSH SCT080
     FM020900 11002KT 6SM HZ BR VCTS BKN050CB OVC080
      TEMPO 0209/0213 3SM HZ BR BKN009
     FM021500 09008KT P6SM SCT022 SCT080
     FM030100 06005KT 6SM HZ BR SCT040=



000
FTUS43 KDLH 020542
TAFINL
TAF
KINL 020542Z 0206/0306 00000KT 6SM HZ BR SKC
     FM020900 00000KT 5SM HZ BR SCT030 BKN080
      TEMPO 0209/0213 1 1/2SM HZ BR
     FM021300 16010KT P6SM FEW040 SCT080
     FM030100 14006KT 6SM HZ BR SKC=



000
FTUS43 KDLH 020542
TAFBRD
TAF
KBRD 020542Z 0206/0306 14004KT 6SM HZ BR VCSH SCT040 OVC120
     FM020900 16003KT 3SM HZ BR VCTS FEW015 BKN060CB
      TEMPO 0209/0212 1 1/2SM HZ BR
     FM021300 17011KT P6SM FEW040 SCT080
     FM030100 15006KT 6SM HZ BR SKC=



000
FTUS43 KDLH 020542
TAFHYR
TAF
KHYR 020542Z 0206/0306 00000KT 3SM HZ BR VCSH SCT120
     FM021000 16005KT 1 1/2SM HZ BR VCTS SCT015 BKN060CB
      TEMPO 0210/0213 1/2SM FG
     FM021400 13006KT P6SM VCTS SCT030 BKN080CB
     FM021700 15007KT P6SM SCT080
     FM030100 10004KT 6SM HZ BR SKC=



000
FTUS43 KDLH 020542
TAFDLH
TAF
KDLH 020542Z 0206/0306 03004KT 6SM HZ BR VCSH SCT080
     FM020900 11002KT 6SM HZ BR VCTS BKN050CB OVC080
      TEMPO 0209/0213 3SM HZ BR BKN009
     FM021500 09008KT P6SM SCT022 SCT080
     FM030100 06005KT 6SM HZ BR SCT040=



000
FTUS43 KDLH 020542
TAFBRD
TAF
KBRD 020542Z 0206/0306 14004KT 6SM HZ BR VCSH SCT040 OVC120
     FM020900 16003KT 3SM HZ BR VCTS FEW015 BKN060CB
      TEMPO 0209/0212 1 1/2SM HZ BR
     FM021300 17011KT P6SM FEW040 SCT080
     FM030100 15006KT 6SM HZ BR SKC=



000
FTUS43 KDLH 020542
TAFHYR
TAF
KHYR 020542Z 0206/0306 00000KT 3SM HZ BR VCSH SCT120
     FM021000 16005KT 1 1/2SM HZ BR VCTS SCT015 BKN060CB
      TEMPO 0210/0213 1/2SM FG
     FM021400 13006KT P6SM VCTS SCT030 BKN080CB
     FM021700 15007KT P6SM SCT080
     FM030100 10004KT 6SM HZ BR SKC=



000
FTUS43 KDLH 020542
TAFINL
TAF
KINL 020542Z 0206/0306 00000KT 6SM HZ BR SKC
     FM020900 00000KT 5SM HZ BR SCT030 BKN080
      TEMPO 0209/0213 1 1/2SM HZ BR
     FM021300 16010KT P6SM FEW040 SCT080
     FM030100 14006KT 6SM HZ BR SKC=



000
FTUS43 KDLH 020329 AAC
TAFHYR
TAF AMD
KHYR 020329Z 0203/0224 03002KT 1/4SM FG HZ VCSH OVC008
      TEMPO 0203/0205 3/4SM HZ BR SCT008
     FM021400 13006KT P6SM SCT030 BKN080=



000
FTUS43 KDLH 020303 AAB
TAFHYR
TAF AMD
KHYR 020303Z 0203/0224 VRB02KT 4SM HZ BR FEW030 SCT070
     FM020600 00000KT 3SM BR HZ VCSH SCT015 BKN080
      TEMPO 0209/0213 1SM BR HZ BKN009
     FM021700 18008KT P6SM SCT030 BKN100=



000
FTUS43 KDLH 020303 AAB
TAFHYR
TAF AMD
KHYR 020303Z 0203/0224 VRB02KT 4SM HZ BR FEW030 SCT070
     FM020600 00000KT 3SM BR HZ VCSH SCT015 BKN080
      TEMPO 0209/0213 1SM BR HZ BKN009
     FM021700 18008KT P6SM SCT030 BKN100=



000
FTUS43 KDLH 020200 AAA
TAFHYR
TAF AMD
KHYR 020200Z 0202/0224 VRB02KT 6SM HZ FEW030 SCT070
     FM020600 00000KT 3SM BR HZ VCSH SCT015 BKN080
      TEMPO 0209/0213 1SM BR HZ BKN009
     FM021700 18008KT P6SM SCT030 BKN100=



000
FTUS43 KDLH 012334
TAFINL
TAF
KINL 012334Z 0200/0224 26003KT P6SM SCT120
      TEMPO 0209/0213 5SM BR SCT030 BKN150
     FM021700 16010KT P6SM FEW040 BKN100=



000
FTUS43 KDLH 012334
TAFHYR
TAF
KHYR 012334Z 0200/0224 19005KT P6SM SKC
     FM020200 VRB02KT 5SM -RA BR VCTS SCT030CB BKN150
     FM020600 00000KT 3SM BR VCSH SCT015 BKN080
      TEMPO 0209/0213 1SM BR BKN009
     FM021700 18008KT P6SM SCT030 BKN100=



000
FTUS43 KDLH 012334
TAFDLH
TAF
KDLH 012334Z 0200/0224 21007KT P6SM SCT045
     FM020600 03004KT 5SM BR VCSH SCT012 BKN070
      TEMPO 0209/0213 2SM BR BKN009
     FM021700 09008KT P6SM SCT022 SCT080=



000
FTUS43 KDLH 012334
TAFBRD
TAF
KBRD 012334Z 0200/0224 10003KT P6SM VCTS SCT050CB BKN120
     FM020400 14004KT P6SM VCSH SCT040 SCT120
     FM020800 16003KT 5SM BR FEW014
     FM021500 17011KT P6SM FEW040=



000
FTUS43 KDLH 011730
TAFDLH
TAF
KDLH 011730Z 0118/0218 24007KT P6SM SCT150
     FM020300 00000KT P6SM FEW050
     FM020800 03004KT 5SM BR VCSH SCT012 BKN070
      TEMPO 0209/0213 2SM BR BKN009
     FM021700 09008KT P6SM SCT022 SCT080=



000
FTUS43 KDLH 011730
TAFINL
TAF
KINL 011730Z 0118/0218 25005KT P6SM SKC
     FM020400 00000KT P6SM SCT150
      TEMPO 0209/0213 5SM BR SCT030 BKN150
     FM021700 16010KT P6SM FEW040 BKN100=



000
FTUS43 KDLH 011730
TAFHYR
TAF
KHYR 011730Z 0118/0218 20010KT P6SM SCT025 SCT150
      TEMPO 0118/0120 BKN024
     FM020200 VRB02KT 5SM -RA BR VCTS SCT030CB BKN150
     FM020600 00000KT 3SM BR VCSH SCT015 BKN080
      TEMPO 0209/0213 1SM BR BKN009
     FM021700 18008KT P6SM SCT030 BKN100=



000
FTUS43 KDLH 011730
TAFBRD
TAF
KBRD 011730Z 0118/0218 VRB05KT P6SM FEW100
     FM020400 14004KT P6SM VCSH SCT040 SCT120
     FM020800 16003KT 5SM BR FEW014
     FM021500 17011KT P6SM FEW040=



000
FTUS43 KDLH 011318 AAA
TAFINL
TAF AMD
KINL 011318Z 0113/0212 00000KT P6SM SKC
      TEMPO 0113/0115 5SM BR
     FM011500 25006KT P6SM SKC
     FM020200 18003KT P6SM SCT150=



000
FTUS43 KDLH 011308 AAA
TAFBRD
TAF AMD
KBRD 011308Z 0113/0212 VRB05KT P6SM SCT100
      TEMPO 0113/0115 3SM BR
     FM020400 00000KT P6SM VCSH SCT040 SCT120
     FM020800 00000KT 5SM BR SKC=



000
FTUS43 KDLH 011308 AAA
TAFBRD
TAF AMD
KBRD 011308Z 0113/0212 VRB05KT P6SM SCT100
      TEMPO 0113/0115 3SM BR
     FM020400 00000KT P6SM VCSH SCT040 SCT120
     FM020800 00000KT 5SM BR SKC=



000
FTUS43 KDLH 011138
TAFHYR
TAF
KHYR 011138Z 0112/0212 18005KT 5SM BR VCSH SCT025 BKN040
     FM011400 20005KT P6SM VCSH SCT030 BKN150
     FM011600 20008KT P6SM SCT150
     FM020400 VRB02KT 3SM BR VCSH SCT030 BKN150=



000
FTUS43 KDLH 011138
TAFDLH
TAF
KDLH 011138Z 0112/0212 25006KT 5SM BR SCT050 SCT200
     FM011300 27007KT P6SM SCT050 BKN200
     FM011700 26009G15KT P6SM FEW040 SCT150
     FM020000 24005KT P6SM SCT120=



000
FTUS43 KDLH 011138
TAFINL
TAF
KINL 011138Z 0112/0212 00000KT 3SM BR SKC
      TEMPO 0112/0113 1SM BR
     FM011300 25006KT P6SM SKC
     FM020200 18003KT P6SM SCT150=



000
FTUS43 KDLH 011138
TAFBRD
TAF
KBRD 011138Z 0112/0212 VRB02KT P6SM SKC
      TEMPO 0112/0113 1SM BR
     FM011600 VRB05KT P6SM SCT100
     FM020400 00000KT P6SM VCSH SCT040 SCT120
     FM020800 00000KT 5SM BR SKC=



000
FTUS43 KDLH 011138
TAFINL
TAF
KINL 011138Z 0112/0212 00000KT 3SM BR SKC
      TEMPO 0112/0113 1SM BR
     FM011300 25006KT P6SM SKC
     FM020200 18003KT P6SM SCT150=



000
FTUS43 KDLH 011138
TAFHYR
TAF
KHYR 011138Z 0112/0212 18005KT 5SM BR VCSH SCT025 BKN040
     FM011400 20005KT P6SM VCSH SCT030 BKN150
     FM011600 20008KT P6SM SCT150
     FM020400 VRB02KT 3SM BR VCSH SCT030 BKN150=



000
FTUS43 KDLH 011138
TAFBRD
TAF
KBRD 011138Z 0112/0212 VRB02KT P6SM SKC
      TEMPO 0112/0113 1SM BR
     FM011600 VRB05KT P6SM SCT100
     FM020400 00000KT P6SM VCSH SCT040 SCT120
     FM020800 00000KT 5SM BR SKC=



000
FTUS43 KDLH 011138
TAFDLH
TAF
KDLH 011138Z 0112/0212 25006KT 5SM BR SCT050 SCT200
     FM011300 27007KT P6SM SCT050 BKN200
     FM011700 26009G15KT P6SM FEW040 SCT150
     FM020000 24005KT P6SM SCT120=



000
FTUS43 KDLH 011005 AAC
TAFDLH
TAF AMD
KDLH 011005Z 0110/0206 22006KT 5SM BR BKN150
     FM011700 26009G15KT P6SM FEW040 SCT150
     FM020000 24005KT P6SM SCT120=



000
FTUS43 KDLH 010950 AAB
TAFBRD
TAF AMD
KBRD 010950Z 0110/0206 20005KT 5SM BR FEW008
      TEMPO 0110/0112 1SM BR BKN007
     FM011300 24005KT P6SM SCT100
     FM020000 20008KT P6SM FEW030 SCT120=



000
FTUS43 KDLH 010859 AAA
TAFINL
TAF AMD
KINL 010859Z 0109/0206 23003KT 3SM BR SKC
      TEMPO 0109/0112 1SM BR
     FM011700 25006KT P6SM SKC
     FM020000 19004KT P6SM FEW150=



000
FTUS43 KDLH 010859 AAA
TAFINL
TAF AMD
KINL 010859Z 0109/0206 23003KT 3SM BR SKC
      TEMPO 0109/0112 1SM BR
     FM011700 25006KT P6SM SKC
     FM020000 19004KT P6SM FEW150=



000
FTUS43 KDLH 010858 AAA
TAFBRD
TAF AMD
KBRD 010858Z 0109/0206 20005KT 3SM BR BKN120
      TEMPO 0109/0111 1SM BR
     FM011300 24005KT P6SM SCT100
     FM020000 20008KT P6SM FEW030 SCT120=



000
FTUS43 KDLH 010858 AAA
TAFBRD
TAF AMD
KBRD 010858Z 0109/0206 20005KT 3SM BR BKN120
      TEMPO 0109/0111 1SM BR
     FM011300 24005KT P6SM SCT100
     FM020000 20008KT P6SM FEW030 SCT120=



000
FTUS43 KDLH 010712 AAA
TAFHYR
TAF AMD
KHYR 010712Z 0107/0206 20006KT 6SM BR BKN025 BKN035
      TEMPO 0109/0113 1 1/2SM BR BKN005
     FM011300 22009KT P6SM VCSH SCT020 BKN120
     FM011600 24010G15KT P6SM FEW040 BKN150
     FM020000 18003KT P6SM SCT030 SCT120=



000
FTUS43 KDLH 010540
TAFHYR
TAF
KHYR 010540Z 0106/0206 20005KT 6SM HZ BKN035
      TEMPO 0109/0113 1 1/2SM BR BKN005
     FM011300 22009KT P6SM VCSH SCT020 BKN120
     FM011600 24010G15KT P6SM FEW040 BKN150
     FM020000 18003KT P6SM SCT030 SCT120=



000
FTUS43 KDLH 010540
TAFDLH
TAF
KDLH 010540Z 0106/0206 22006KT 6SM HZ SCT035 BKN050
     FM011700 26009G15KT P6SM FEW040 SCT150
     FM020000 24005KT P6SM SCT120=



000
FTUS43 KDLH 010540
TAFBRD
TAF
KBRD 010540Z 0106/0206 20005KT 6SM HZ BKN120
      TEMPO 0108/0110 3SM HZ
     FM011600 24005KT P6SM SCT100
     FM020000 20008KT P6SM FEW030 SCT120=



000
FTUS43 KDLH 010540
TAFINL
TAF
KINL 010540Z 0106/0206 23003KT 6SM HZ FEW050
     FM011700 25006KT P6SM SKC
     FM020000 19004KT P6SM FEW150=



000
FTUS43 KDLH 010540
TAFBRD
TAF
KBRD 010540Z 0106/0206 20005KT 6SM HZ BKN120
      TEMPO 0108/0110 3SM HZ
     FM011600 24005KT P6SM SCT100
     FM020000 20008KT P6SM FEW030 SCT120=



000
FTUS43 KDLH 010540
TAFHYR
TAF
KHYR 010540Z 0106/0206 20005KT 6SM HZ BKN035
      TEMPO 0109/0113 1 1/2SM BR BKN005
     FM011300 22009KT P6SM VCSH SCT020 BKN120
     FM011600 24010G15KT P6SM FEW040 BKN150
     FM020000 18003KT P6SM SCT030 SCT120=



000
FTUS43 KDLH 010540
TAFINL
TAF
KINL 010540Z 0106/0206 23003KT 6SM HZ FEW050
     FM011700 25006KT P6SM SKC
     FM020000 19004KT P6SM FEW150=



000
FTUS43 KDLH 010540
TAFDLH
TAF
KDLH 010540Z 0106/0206 22006KT 6SM HZ SCT035 BKN050
     FM011700 26009G15KT P6SM FEW040 SCT150
     FM020000 24005KT P6SM SCT120=



000
FTUS43 KDLH 010038 AAA
TAFINL
TAF AMD
KINL 010038Z 0101/0124 25005KT P6SM VCSH BKN120
     FM010500 VRB03KT P6SM FEW050
     FM011700 25006KT P6SM SKC=



000
FTUS43 KDLH 312333
TAFINL
TAF
KINL 312333Z 0100/0124 29012G16KT P6SM VCSH BKN120
     FM010500 VRB03KT P6SM FEW050
     FM011700 25006KT P6SM SKC=



000
FTUS43 KDLH 312333
TAFBRD
TAF
KBRD 312333Z 0100/0124 20012KT P6SM FEW040 BKN120
     FM010200 19005KT P6SM VCSH SCT040 BKN120
     FM010800 00000KT 6SM BR FEW013 BKN100
     FM011600 24005KT P6SM SCT100=



000
FTUS43 KDLH 312333
TAFDLH
TAF
KDLH 312333Z 0100/0124 22013G21KT P6SM BKN100
     FM010100 22011KT P6SM SCT040 BKN150
     FM010600 24006KT 5SM BR BKN050 BKN100
     FM011700 26009G15KT P6SM FEW040 SCT150=



000
FTUS43 KDLH 312333
TAFHYR
TAF
KHYR 312333Z 0100/0124 19012KT P6SM SKC
     FM010200 19007KT P6SM SCT040 SCT250
     FM010600 19003KT 4SM BR VCSH SCT004 BKN030
      TEMPO 0109/0113 1 1/2SM BR BKN005
     FM011500 22009KT P6SM VCSH SCT020 BKN120=



000
FTUS43 KDLH 311720
TAFBRD
TAF
KBRD 311720Z 3118/0118 19015G28KT P6SM FEW200
     FM010200 19005KT P6SM SCT040 BKN120
     FM010800 00000KT 6SM BR FEW013 BKN100
     FM011600 24005KT P6SM SCT100=



000
FTUS43 KDLH 311720
TAFDLH
TAF
KDLH 311720Z 3118/0118 20015G22KT P6SM FEW250
     FM010100 22010G17KT P6SM VCTS SCT040CB BKN150
     FM010600 24006KT 5SM BR BKN050 BKN100
     FM011700 22009G15KT P6SM FEW040 SCT150=



000
FTUS43 KDLH 311720
TAFINL
TAF
KINL 311720Z 3118/0118 20014G23KT P6SM FEW150
     FM312300 21005KT P6SM VCTS SCT040CB BKN120
     FM010500 VRB03KT P6SM FEW050
     FM011700 25006KT P6SM SKC=



000
FTUS43 KDLH 311720
TAFHYR
TAF
KHYR 311720Z 3118/0118 19012KT P6SM BKN015
     FM311900 20013G19KT P6SM SCT250
     FM010200 19007KT P6SM SCT040 SCT250
     FM010600 19003KT 4SM BR VCSH SCT004 BKN030
      TEMPO 0109/0113 1 1/2SM BR BKN005
     FM011500 22009KT P6SM SCT020 SCT120=



000
FTUS43 KDLH 311720
TAFBRD
TAF
KBRD 311720Z 3118/0118 19015G28KT P6SM FEW200
     FM010200 19005KT P6SM SCT040 BKN120
     FM010800 00000KT 6SM BR FEW013 BKN100
     FM011600 24005KT P6SM SCT100=



000
FTUS43 KDLH 311720
TAFHYR
TAF
KHYR 311720Z 3118/0118 19012KT P6SM BKN015
     FM311900 20013G19KT P6SM SCT250
     FM010200 19007KT P6SM SCT040 SCT250
     FM010600 19003KT 4SM BR VCSH SCT004 BKN030
      TEMPO 0109/0113 1 1/2SM BR BKN005
     FM011500 22009KT P6SM SCT020 SCT120=



000
FTUS43 KDLH 311720
TAFINL
TAF
KINL 311720Z 3118/0118 20014G23KT P6SM FEW150
     FM312300 21005KT P6SM VCTS SCT040CB BKN120
     FM010500 VRB03KT P6SM FEW050
     FM011700 25006KT P6SM SKC=



000
FTUS43 KDLH 311720
TAFDLH
TAF
KDLH 311720Z 3118/0118 20015G22KT P6SM FEW250
     FM010100 22010G17KT P6SM VCTS SCT040CB BKN150
     FM010600 24006KT 5SM BR BKN050 BKN100
     FM011700 22009G15KT P6SM FEW040 SCT150=



000
FTUS43 KDLH 311345 AAB
TAFDLH
TAF AMD
KDLH 311345Z 3114/0112 20013KT P6SM SCT009
     FM311700 21015G22KT P6SM FEW250
     FM010100 22011KT P6SM SCT040
     FM010800 23008KT 5SM BR SCT040 BKN120=



000
FTUS43 KDLH 311137
TAFBRD
TAF
KBRD 311137Z 3112/0112 18011KT 4SM BR BKN007
      TEMPO 3112/3114 5SM BR SCT006
     FM311400 19013KT P6SM SKC
     FM311700 20016G28KT P6SM FEW150
     FM010200 19005KT P6SM SCT040 BKN120=



000
FTUS43 KDLH 311137
TAFHYR
TAF
KHYR 311137Z 3112/0112 20007KT P6SM BKN009
      TEMPO 3114/3116 SCT010
     FM311600 20013G21KT P6SM SCT250
     FM010000 19003KT P6SM SCT250
     FM010500 19003KT 4SM BR SCT004=



000
FTUS43 KDLH 311137
TAFDLH
TAF
KDLH 311137Z 3112/0112 21010KT 5SM BR BKN005
      TEMPO 3112/3114 SCT005
     FM311400 21014G22KT P6SM FEW250
     FM010100 22011KT P6SM SCT040
     FM010800 23008KT 5SM BR SCT040 BKN120=



000
FTUS43 KDLH 311137
TAFINL
TAF
KINL 311137Z 3112/0112 VRB05KT P6SM SKC
     FM311500 20014G21KT P6SM SCT150
     FM312300 21005KT P6SM SCT040 BKN120
     FM010400 VRB03KT P6SM SKC=



000
FTUS43 KDLH 311137
TAFINL
TAF
KINL 311137Z 3112/0112 VRB05KT P6SM SKC
     FM311500 20014G21KT P6SM SCT150
     FM312300 21005KT P6SM SCT040 BKN120
     FM010400 VRB03KT P6SM SKC=



000
FTUS43 KDLH 311137
TAFBRD
TAF
KBRD 311137Z 3112/0112 18011KT 4SM BR BKN007
      TEMPO 3112/3114 5SM BR SCT006
     FM311400 19013KT P6SM SKC
     FM311700 20016G28KT P6SM FEW150
     FM010200 19005KT P6SM SCT040 BKN120=



000
FTUS43 KDLH 311137
TAFHYR
TAF
KHYR 311137Z 3112/0112 20007KT P6SM BKN009
      TEMPO 3114/3116 SCT010
     FM311600 20013G21KT P6SM SCT250
     FM010000 19003KT P6SM SCT250
     FM010500 19003KT 4SM BR SCT004=



000
FTUS43 KDLH 311137
TAFDLH
TAF
KDLH 311137Z 3112/0112 21010KT 5SM BR BKN005
      TEMPO 3112/3114 SCT005
     FM311400 21014G22KT P6SM FEW250
     FM010100 22011KT P6SM SCT040
     FM010800 23008KT 5SM BR SCT040 BKN120=



000
FTUS43 KDLH 310928 AAA
TAFINL
TAF AMD
KINL 310928Z 3109/0106 VRB03KT P6SM SKC
     FM311400 19013KT P6SM SCT120 SCT250
     FM010000 19004KT P6SM SCT040 SCT120=



000
FTUS43 KDLH 310928 AAA
TAFINL
TAF AMD
KINL 310928Z 3109/0106 VRB03KT P6SM SKC
     FM311400 19013KT P6SM SCT120 SCT250
     FM010000 19004KT P6SM SCT040 SCT120=



000
FTUS43 KDLH 310927 AAA
TAFBRD
TAF AMD
KBRD 310927Z 3109/0106 18011KT 6SM BR SKC
      TEMPO 3109/3111 3SM BR BKN004
     FM311300 19013KT P6SM FEW250
     FM311700 20015G22KT P6SM BKN250
     FM010000 18007KT P6SM SCT040 BKN120=



000
FTUS43 KDLH 310927 AAA
TAFBRD
TAF AMD
KBRD 310927Z 3109/0106 18011KT 6SM BR SKC
      TEMPO 3109/3111 3SM BR BKN004
     FM311300 19013KT P6SM FEW250
     FM311700 20015G22KT P6SM BKN250
     FM010000 18007KT P6SM SCT040 BKN120=



000
FTUS43 KDLH 310926 AAB
TAFHYR
TAF AMD
KHYR 310926Z 3109/0106 20007KT P6SM BKN009
      TEMPO 3110/3113 20006KT 2SM BR BKN003
     FM311300 19008KT P6SM FEW250
     FM311800 20012G19KT P6SM SCT250
     FM010300 19003KT 4SM BR SCT250=



000
FTUS43 KDLH 310926 AAB
TAFHYR
TAF AMD
KHYR 310926Z 3109/0106 20007KT P6SM BKN009
      TEMPO 3110/3113 20006KT 2SM BR BKN003
     FM311300 19008KT P6SM FEW250
     FM311800 20012G19KT P6SM SCT250
     FM010300 19003KT 4SM BR SCT250=



000
FTUS43 KDLH 310647 AAA
TAFHYR
TAF AMD
KHYR 310647Z 3107/0106 20007KT P6SM BKN009
     FM310900 20006KT 2SM BR BKN003
     FM311400 19008KT P6SM FEW250
     FM311800 20012G19KT P6SM SCT250
     FM010300 19003KT 4SM BR SCT250=



000
FTUS43 KDLH 310647 AAA
TAFHYR
TAF AMD
KHYR 310647Z 3107/0106 20007KT P6SM BKN009
     FM310900 20006KT 2SM BR BKN003
     FM311400 19008KT P6SM FEW250
     FM311800 20012G19KT P6SM SCT250
     FM010300 19003KT 4SM BR SCT250=



000
FTUS43 KDLH 310646 AAA
TAFDLH
TAF AMD
KDLH 310646Z 3107/0106 22005KT 5SM BR BKN006
      TEMPO 3108/3112 1 1/2SM BR BKN005
     FM311600 21014G22KT P6SM SCT040 SCT250
     FM010100 22011KT P6SM SCT040 BKN120=



000
FTUS43 KDLH 310646 AAA
TAFDLH
TAF AMD
KDLH 310646Z 3107/0106 22005KT 5SM BR BKN006
      TEMPO 3108/3112 1 1/2SM BR BKN005
     FM311600 21014G22KT P6SM SCT040 SCT250
     FM010100 22011KT P6SM SCT040 BKN120=



000
FTUS43 KDLH 310539
TAFINL
TAF
KINL 310539Z 3106/0106 VRB03KT P6SM SKC
     FM310900 17003KT 5SM BR SCT006
     FM311400 19013KT P6SM SCT120 SCT250
     FM010000 19004KT P6SM SCT040 SCT120=



000
FTUS43 KDLH 310539
TAFBRD
TAF
KBRD 310539Z 3106/0106 18011KT P6SM SKC
     FM310900 18006KT 3SM BR BKN004
     FM311400 19013KT P6SM FEW250
     FM311700 20015G22KT P6SM BKN250
     FM010000 18007KT P6SM SCT040 BKN120=



000
FTUS43 KDLH 310539
TAFDLH
TAF
KDLH 310539Z 3106/0106 22008KT P6SM SKC
     FM310900 22005KT 5SM BR SCT006
      TEMPO 3109/3113 1 1/2SM BR BKN006
     FM311600 21014G22KT P6SM SCT040 SCT250
     FM010100 22011KT P6SM SCT040 BKN120=



000
FTUS43 KDLH 310539
TAFHYR
TAF
KHYR 310539Z 3106/0106 20007KT P6SM SKC
     FM310900 20006KT 2SM BR BKN003
     FM311400 19008KT P6SM FEW250
     FM311800 20012G19KT P6SM SCT250
     FM010300 19003KT 4SM BR SCT250=



000
FTUS43 KDLH 310539
TAFINL
TAF
KINL 310539Z 3106/0106 VRB03KT P6SM SKC
     FM310900 17003KT 5SM BR SCT006
     FM311400 19013KT P6SM SCT120 SCT250
     FM010000 19004KT P6SM SCT040 SCT120=



000
FTUS43 KDLH 310539
TAFBRD
TAF
KBRD 310539Z 3106/0106 18011KT P6SM SKC
     FM310900 18006KT 3SM BR BKN004
     FM311400 19013KT P6SM FEW250
     FM311700 20015G22KT P6SM BKN250
     FM010000 18007KT P6SM SCT040 BKN120=



000
FTUS43 KDLH 310539
TAFDLH
TAF
KDLH 310539Z 3106/0106 22008KT P6SM SKC
     FM310900 22005KT 5SM BR SCT006
      TEMPO 3109/3113 1 1/2SM BR BKN006
     FM311600 21014G22KT P6SM SCT040 SCT250
     FM010100 22011KT P6SM SCT040 BKN120=



000
FTUS43 KDLH 310539
TAFHYR
TAF
KHYR 310539Z 3106/0106 20007KT P6SM SKC
     FM310900 20006KT 2SM BR BKN003
     FM311400 19008KT P6SM FEW250
     FM311800 20012G19KT P6SM SCT250
     FM010300 19003KT 4SM BR SCT250=



000
FTUS43 KDLH 302335
TAFINL
TAF
KINL 302335Z 3100/3124 16004KT P6SM SKC
     FM310900 17003KT 5SM BR BKN006
     FM311400 19013KT P6SM FEW250=



000
FTUS43 KDLH 302335
TAFHYR
TAF
KHYR 302335Z 3100/3124 19008KT P6SM SKC
     FM310900 20006KT 2SM BR BKN003
     FM311400 19008KT P6SM FEW250
     FM311800 20012G19KT P6SM SCT250=



000
FTUS43 KDLH 302335
TAFBRD
TAF
KBRD 302335Z 3100/3124 18011KT P6SM SKC
     FM310900 18006KT 3SM BR BKN004
     FM311400 19013KT P6SM FEW250
     FM311700 20015G22KT P6SM BKN250=



000
FTUS43 KDLH 302335
TAFDLH
TAF
KDLH 302335Z 3100/3124 20010KT P6SM SKC
     FM310900 22005KT 5SM BR SCT006
      TEMPO 3109/3113 1 1/2SM BR BKN006
     FM311400 21012KT P6SM FEW250
     FM311700 21015G22KT P6SM BKN250=



000
FTUS43 KDLH 302007 AAA
TAFBRD
TAF AMD
KBRD 302007Z 3020/3118 16010KT P6SM BKN250
     FM310000 18007KT P6SM SCT250
     FM310900 18006KT 3SM BR BKN004
     FM311400 19013KT P6SM FEW250=



000
FTUS43 KDLH 302005 AAA
TAFDLH
TAF AMD
KDLH 302005Z 3020/3118 22010KT P6SM BKN250
     FM310000 20007KT P6SM SCT250
     FM310900 22005KT 5SM BR BKN006
     FM311400 21012KT P6SM FEW250=



000
FTUS43 KDLH 301721
TAFBRD
TAF
KBRD 301721Z 3018/3118 20013KT P6SM BKN250
     FM310000 18007KT P6SM SCT250
     FM310900 18006KT 3SM BR BKN004
     FM311400 19013KT P6SM FEW250=



000
FTUS43 KDLH 301721
TAFDLH
TAF
KDLH 301721Z 3018/3118 21013G20KT P6SM BKN250
     FM310000 20009KT P6SM SCT250
     FM310900 22005KT 5SM BR BKN006
     FM311400 21012KT P6SM FEW250=



000
FTUS43 KDLH 301721
TAFINL
TAF
KINL 301721Z 3018/3118 20008KT P6SM BKN150
     FM310100 17004KT P6SM SCT250
     FM310900 17003KT 5SM BR BKN006
     FM311400 19013KT P6SM FEW250=



000
FTUS43 KDLH 301721
TAFHYR
TAF
KHYR 301721Z 3018/3118 20010KT P6SM BKN250
     FM310000 19005KT P6SM SCT250
     FM310900 20006KT 2SM BR BKN003
     FM311400 19008KT P6SM FEW250=



000
FTUS43 KDLH 301721
TAFBRD
TAF
KBRD 301721Z 3018/3118 20013KT P6SM BKN250
     FM310000 18007KT P6SM SCT250
     FM310900 18006KT 3SM BR BKN004
     FM311400 19013KT P6SM FEW250=



000
FTUS43 KDLH 301721
TAFDLH
TAF
KDLH 301721Z 3018/3118 21013G20KT P6SM BKN250
     FM310000 20009KT P6SM SCT250
     FM310900 22005KT 5SM BR BKN006
     FM311400 21012KT P6SM FEW250=



000
FTUS43 KDLH 301721
TAFINL
TAF
KINL 301721Z 3018/3118 20008KT P6SM BKN150
     FM310100 17004KT P6SM SCT250
     FM310900 17003KT 5SM BR BKN006
     FM311400 19013KT P6SM FEW250=



000
FTUS43 KDLH 301721
TAFHYR
TAF
KHYR 301721Z 3018/3118 20010KT P6SM BKN250
     FM310000 19005KT P6SM SCT250
     FM310900 20006KT 2SM BR BKN003
     FM311400 19008KT P6SM FEW250=



    US Dept of Commerce
    National Oceanic and Atmospheric Administration
    National Weather Service
    1325 East West Highway
    Silver Spring, MD 20910
    Page Author: NWS Internet Services Team
Disclaimer
Information Quality
Credits
Glossary
Privacy Policy
Freedom of Information Act (FOIA)
About Us
Career Opportunities